Latest Weather Observations for Wyndham Airport

IDD60801

Issued at 6:01 am CST Tuesday 23 December 2014 (issued every 30 minutes, with the page automatically refreshed every 10 minutes)

About weather observations | Map of weather stations | Latest weather observations for NT | Other Formats
Station Details ID: 001006 Name: WYNDHAM AERO Lat: -15.51 Lon: 128.15 Height: 3.8 m
Data from the previous 72 hours. | See also: Recent months for locations in Northern Territory
Date/Time
CST
Temp
°C
App
Temp
°C
Dew
Point
Rel
Hum
%
Delta-T
°C
Wind Press
QNH
hPa
Press
MSL
hPa
Rain
since 9 am
mm
Dir
 
Spd
km/h
Gust
km/h
Spd
kts
Gust
kts
23/06:00am 26.9 32.8 26.2 96 0.5 ESE 7 9 4 5 1007.2 1007.2 6.8
23/05:30am 26.9 32.3 26.0 95 0.6 ESE 9 9 5 5 1007.2 1007.2 6.8
23/05:00am 27.1 32.3 25.7 92 1.0 SE 9 9 5 5 1007.0 1007.0 6.8
23/04:30am 27.6 32.6 25.4 88 1.5 ENE 9 11 5 6 1007.2 1007.2 6.8
23/04:00am 27.3 32.4 25.5 90 1.3 ENE 9 9 5 5 1007.1 1007.1 6.8
23/03:30am 27.5 32.8 25.9 91 1.1 ESE 9 11 5 6 1006.9 1006.9 6.8
23/03:00am 27.6 33.1 25.6 89 1.4 E 7 9 4 5 1006.9 1006.9 6.8
23/02:30am 27.8 33.1 25.8 89 1.4 ENE 9 11 5 6 1007.0 1007.0 6.8
23/02:00am 28.0 33.4 26.0 89 1.4 ESE 9 13 5 7 1007.2 1007.2 6.8
23/01:30am 28.0 33.9 26.2 90 1.3 E 7 9 4 5 1007.3 1007.3 6.8
23/01:00am 28.1 35.4 26.3 90 1.3 CALM 0 9 0 5 1007.7 1007.7 6.8
23/12:30am 28.2 35.3 26.0 88 1.6 CALM 0 0 0 0 1008.1 1008.1 6.8
23/12:00am 28.1 35.3 26.1 89 1.4 CALM 0 0 0 0 1008.3 1008.3 6.8
 
Date/Time
CST
Temp
°C
App
Temp
°C
Dew
Point
Rel
Hum
%
Delta-T
°C
Wind Press
QNH
hPa
Press
MSL
hPa
Rain
since 9 am
mm
Dir
 
Spd
km/h
Gust
km/h
Spd
kts
Gust
kts
22/11:30pm 28.2 35.3 26.0 88 1.6 CALM 0 0 0 0 1007.9 1007.9 6.8
22/11:00pm 28.1 35.0 25.7 87 1.7 CALM 0 2 0 1 1007.8 1007.8 6.8
22/10:30pm 28.4 35.0 25.2 83 2.2 CALM 0 0 0 0 1007.7 1007.7 6.8
22/10:00pm 28.5 33.1 25.3 83 2.2 ENE 11 13 6 7 1007.6 1007.6 6.8
22/09:30pm 28.4 33.8 25.2 83 2.2 ENE 6 7 3 4 1007.2 1007.2 6.8
22/09:00pm 28.4 33.3 25.2 83 2.2 ENE 9 11 5 6 1007.1 1007.1 6.8
22/08:30pm 28.4 32.9 25.2 83 2.2 SE 11 13 6 7 1007.0 1007.0 6.8
22/08:00pm 28.5 32.7 25.3 83 2.2 SE 13 15 7 8 1006.8 1006.8 6.8
22/07:30pm 29.0 34.8 25.8 83 2.3 NE 6 7 3 4 1006.1 1006.1 6.8
22/07:00pm 28.7 33.5 25.1 81 2.5 ESE 9 11 5 6 1005.5 1005.5 6.8
22/06:30pm 29.1 34.4 25.3 80 2.7 ENE 7 11 4 6 1005.1 1005.1 6.8
22/06:00pm 29.4 34.3 24.7 76 3.3 SSE 7 9 4 5 1005.2 1005.2 6.8
22/05:30pm 28.9 35.2 24.7 78 2.9 CALM 0 7 0 4 1004.9 1004.9 6.8
22/05:00pm 28.0 33.1 25.0 84 2.1 SE 7 7 4 4 1004.4 1004.4 6.8
22/04:30pm 27.6 32.1 24.6 84 2.1 E 9 13 5 7 1005.1 1005.1 6.8
22/04:00pm 27.5 30.3 24.9 86 1.8 ESE 19 24 10 13 1005.9 1005.9 6.8
22/03:30pm 26.6 28.3 23.1 81 2.4 E 19 26 10 14 1006.3 1006.3 6.4
22/03:06pm 26.3 24.5 21.1 73 3.4 N 32 59 17 32 1005.9 1005.9 4.4
22/03:05pm 27.0 24.9 20.6 68 4.2 NNW 32 46 17 25 1005.9 1005.9 3.2
22/03:00pm 32.0 29.7 21.2 52 7.3 NW 35 46 19 25 1005.7 1005.7 0.0
22/02:44pm 33.3 32.9 22.4 52 7.5 NNW 28 54 15 29 1005.7 1005.7 0.0
22/02:30pm 36.8 38.2 23.6 46 9.3 N 22 32 12 17 1005.7 1005.7 0.0
22/02:00pm 36.2 37.7 22.7 45 9.3 N 19 32 10 17 1005.7 1005.7 0.0
22/01:30pm 35.1 36.6 23.1 49 8.3 N 20 30 11 16 1006.4 1006.4 0.0
22/01:00pm 34.8 37.3 23.8 53 7.7 N 17 28 9 15 1007.1 1007.1 0.0
22/12:30pm 34.6 38.0 23.3 52 7.9 N 11 20 6 11 1007.6 1007.6 0.0
22/12:00pm 34.8 37.5 23.5 52 7.9 NNW 15 24 8 13 1008.0 1008.0 0.0
22/11:30am 33.8 36.9 23.5 55 7.2 NW 13 22 7 12 1008.2 1008.2 0.0
22/11:00am 33.0 36.6 22.4 53 7.3 WNW 7 15 4 8 1008.4 1008.4 0.0
22/10:30am 32.8 36.5 22.3 54 7.2 NNW 6 11 3 6 1008.6 1008.6 0.0
22/10:00am 31.7 35.5 22.7 59 6.2 N 7 13 4 7 1008.7 1008.7 0.0
22/09:30am 31.4 35.2 22.7 60 6.0 NE 7 15 4 8 1008.7 1008.7 0.0
22/09:00am 30.3 33.6 23.2 65 4.9 ENE 11 15 6 8 1008.8 1008.8 0.0
22/08:30am 29.5 32.0 23.2 69 4.3 E 15 20 8 11 1008.7 1008.7 0.0
22/08:00am 29.3 32.4 23.5 71 4.0 E 13 19 7 10 1008.3 1008.3 0.0
22/07:30am 28.8 32.4 24.4 77 3.1 E 13 17 7 9 1007.7 1007.7 0.0
22/07:00am 27.9 31.7 24.1 80 2.6 E 11 13 6 7 1007.5 1007.5 0.0
22/06:30am 27.6 31.4 24.0 81 2.5 ENE 11 15 6 8 1007.2 1007.2 0.0
22/06:00am 27.7 30.6 23.9 80 2.6 ENE 15 19 8 10 1006.9 1006.9 0.0
22/05:30am 27.9 30.2 23.5 77 3.0 E 17 22 9 12 1006.5 1006.5 0.0
22/05:00am 28.1 30.3 23.2 74 3.3 E 17 22 9 12 1006.2 1006.2 0.0
22/04:30am 27.8 31.3 23.6 78 2.9 ENE 11 13 6 7 1006.5 1006.5 0.0
22/04:00am 27.7 33.4 23.7 79 2.7 CALM 0 6 0 3 1006.5 1006.5 0.0
22/03:30am 27.8 32.9 23.4 77 3.0 SSW 2 11 1 6 1006.5 1006.5 0.0
22/03:00am 27.7 33.7 24.3 82 2.4 CALM 0 0 0 0 1006.3 1006.3 0.0
22/02:30am 27.4 33.0 23.6 80 2.6 CALM 0 0 0 0 1006.4 1006.4 0.0
22/02:00am 27.4 31.3 23.6 80 2.6 ESE 9 11 5 6 1006.6 1006.6 0.0
22/01:30am 27.7 30.8 23.5 78 2.9 E 13 15 7 8 1006.9 1006.9 0.0
22/01:00am 28.1 31.8 23.9 78 2.9 ESE 11 17 6 9 1007.2 1007.2 0.0
22/12:30am 28.9 32.8 22.9 70 4.1 NNE 7 9 4 5 1007.6 1007.6 0.0
22/12:00am 28.8 32.4 23.0 71 4.0 NE 9 11 5 6 1008.1 1008.1 0.0
 
Date/Time
CST
Temp
°C
App
Temp
°C
Dew
Point
Rel
Hum
%
Delta-T
°C
Wind Press
QNH
hPa
Press
MSL
hPa
Rain
since 9 am
mm
Dir
 
Spd
km/h
Gust
km/h
Spd
kts
Gust
kts
21/11:30pm 28.9 32.4 22.9 70 4.1 E 9 11 5 6 1008.6 1008.6 0.0
21/11:00pm 29.3 31.2 22.8 68 4.4 SE 17 22 9 12 1008.6 1008.6 0.0
21/10:30pm 30.1 32.7 23.3 67 4.7 SE 15 20 8 11 1008.4 1008.4 0.0
21/10:00pm 29.9 34.1 24.1 71 4.0 SE 9 11 5 6 1008.2 1008.2 0.0
21/09:30pm 29.5 32.8 23.9 72 3.9 ESE 13 17 7 9 1007.6 1007.6 0.0
21/09:00pm 29.6 32.2 24.0 72 3.9 E 17 24 9 13 1007.1 1007.1 0.0
21/08:30pm 29.8 31.7 23.7 70 4.2 E 20 26 11 14 1006.7 1006.7 0.0
21/08:00pm 30.3 33.7 24.0 69 4.4 E 13 19 7 10 1006.4 1006.4 0.0
21/07:30pm 30.8 32.4 23.2 64 5.2 E 20 26 11 14 1005.7 1005.7 0.0
21/07:00pm 31.8 33.8 22.2 56 6.5 NE 15 20 8 11 1004.9 1004.9 0.0
21/06:30pm 32.4 34.1 21.6 53 7.3 NE 15 24 8 13 1004.0 1004.0 0.0
21/06:00pm 33.3 34.0 21.5 50 8.0 NE 20 32 11 17 1004.1 1004.1 0.0
21/05:30pm 33.5 33.1 21.0 48 8.4 NNE 24 39 13 21 1003.9 1003.9 0.0
21/05:00pm 34.5 32.9 20.1 43 9.6 NNE 28 39 15 21 1003.6 1003.6 0.0
21/04:30pm 35.5 35.9 21.7 44 9.4 NE 22 37 12 20 1003.9 1003.9 0.0
21/04:00pm 36.8 36.7 18.8 34 11.9 NNE 17 26 9 14 1003.3 1003.3 0.0
21/03:30pm 36.9 38.2 19.4 36 11.7 NW 11 20 6 11 1003.8 1003.8 0.0
21/03:00pm 37.0 38.2 19.9 36 11.4 NW 13 24 7 13 1004.3 1004.3 0.0
21/02:30pm 37.0 38.0 20.3 37 11.3 NNW 15 20 8 11 1004.6 1004.6 0.0
21/02:00pm 36.6 37.8 20.0 38 11.1 NNW 13 22 7 12 1005.3 1005.3 0.0
21/01:30pm 36.0 39.1 22.2 45 9.5 N 9 17 5 9 1006.1 1006.1 0.0
21/01:00pm 35.4 38.4 22.0 45 9.2 W 9 15 5 8 1006.8 1006.8 0.0
21/12:30pm 35.0 38.0 22.0 46 8.9 WNW 9 20 5 11 1007.6 1007.6 0.0
21/12:00pm 34.8 37.3 21.8 46 8.9 WNW 11 15 6 8 1008.0 1008.0 0.0
21/11:30am 34.1 36.7 21.2 47 8.7 WNW 9 17 5 9 1008.2 1008.2 0.0
21/11:00am 34.0 37.4 22.7 51 7.8 NW 9 15 5 8 1008.3 1008.3 0.0
21/10:30am 33.2 36.7 23.5 56 6.7 WNW 11 17 6 9 1008.4 1008.4 0.0
21/10:00am 32.7 37.0 23.6 58 6.3 WNW 7 11 4 6 1008.5 1008.5 0.0
21/09:30am 31.7 36.8 24.0 63 5.4 SSW 4 9 2 5 1008.4 1008.4 0.0
21/09:00am 31.6 36.2 24.2 65 5.2 W 7 11 4 6 1008.3 1008.3 0.0
21/08:30am 31.0 34.8 23.4 64 5.3 WNW 9 11 5 6 1008.1 1008.1 0.0
21/08:00am 30.4 34.8 24.5 70 4.1 WNW 9 11 5 6 1007.8 1007.8 0.0
21/07:30am 29.3 35.8 25.1 78 3.0 CALM 0 0 0 0 1007.5 1007.5 0.0
21/07:00am 28.1 34.0 25.9 88 1.6 E 6 7 3 4 1007.4 1007.4 0.0
21/06:30am 27.8 33.1 25.8 89 1.4 E 9 13 5 7 1007.1 1007.1 0.0
21/06:00am 27.6 32.3 25.6 89 1.4 E 11 13 6 7 1006.6 1006.6 0.0
21/05:30am 27.7 32.1 25.7 89 1.4 E 13 15 7 8 1006.3 1006.3 0.0
21/05:00am 27.7 32.3 25.3 87 1.7 ESE 11 17 6 9 1006.0 1006.0 0.0
21/04:30am 27.8 32.8 24.8 84 2.1 SSE 7 17 4 9 1006.0 1006.0 0.0
21/04:00am 28.7 34.7 24.3 77 3.1 CALM 0 0 0 0 1006.0 1006.0 0.0
21/03:30am 28.5 34.1 24.9 81 2.5 NNW 4 7 2 4 1005.8 1005.8 0.0
21/03:00am 28.7 33.5 24.5 78 2.9 NNW 7 7 4 4 1005.8 1005.8 0.0
21/02:30am 28.9 34.3 25.1 80 2.7 WNW 6 7 3 4 1005.9 1005.9 0.0
21/02:00am 29.1 33.9 24.4 76 3.3 NW 7 9 4 5 1006.2 1006.2 0.0
21/01:30am 29.5 33.3 23.4 69 4.2 NNW 9 11 5 6 1006.7 1006.7 0.0
21/01:00am 29.6 32.8 23.1 68 4.5 NNW 11 13 6 7 1007.0 1007.0 0.0
21/12:30am 30.0 32.5 22.4 63 5.2 NNW 13 15 7 8 1007.3 1007.3 0.0
21/12:00am 29.9 33.6 23.3 67 4.5 W 9 11 5 6 1007.7 1007.7 0.0
 
Date/Time
CST
Temp
°C
App
Temp
°C
Dew
Point
Rel
Hum
%
Delta-T
°C
Wind Press
QNH
hPa
Press
MSL
hPa
Rain
since 9 am
mm
Dir
 
Spd
km/h
Gust
km/h
Spd
kts
Gust
kts
20/11:30pm 29.7 34.6 25.2 77 3.2 SW 9 11 5 6 1008.1 1008.1 0.0
20/11:00pm 30.4 33.7 24.5 70 4.1 NW 15 19 8 10 1008.1 1008.1 0.0
20/10:30pm 30.3 34.3 23.7 68 4.6 WNW 9 13 5 7 1007.7 1007.7 0.0
20/10:00pm 30.9 34.0 22.8 62 5.5 NNW 11 13 6 7 1007.3 1007.3 0.0
20/09:30pm 30.9 33.8 22.5 61 5.7 N 11 13 6 7 1006.9 1006.9 0.0
20/09:00pm 31.0 33.2 22.6 61 5.7 N 15 19 8 10 1006.7 1006.7 0.0
20/08:30pm 31.8 32.8 19.4 47 8.1 N 13 17 7 9 1006.4 1006.4 0.0
20/08:00pm 30.9 34.8 23.0 62 5.4 N 7 11 4 6 1006.2 1006.2 0.0
20/07:30pm 31.4 34.2 21.6 56 6.6 NNW 9 11 5 6 1005.4 1005.4 0.0
20/07:00pm 32.2 34.1 21.4 53 7.3 NW 13 17 7 9 1004.9 1004.9 0.0
20/06:30pm 33.2 34.8 20.7 47 8.4 NW 13 17 7 9 1004.5 1004.5 0.0
20/06:00pm 33.6 34.8 16.9 37 10.6 N 6 15 3 8 1004.3 1004.3 0.0
20/05:30pm 33.6 35.0 17.3 37 10.5 ENE 6 13 3 7 1004.4 1004.4 0.0
20/05:00pm 33.7 35.1 17.8 38 10.3 NNE 7 13 4 7 1004.6 1004.6 0.0
20/04:30pm 33.8 35.8 18.7 40 9.9 WSW 6 13 3 7 1004.9 1004.9 0.0
20/04:00pm 34.0 36.2 20.4 45 9.1 S 9 15 5 8 1005.2 1005.2 0.0
20/03:30pm 34.4 37.2 20.4 44 9.4 SW 6 9 3 5 1005.4 1005.4 0.0
20/03:00pm 33.8 36.5 20.6 46 8.8 WSW 7 13 4 7 1005.9 1005.9 0.0
20/02:30pm 34.3 36.6 22.0 48 8.4 SSW 13 17 7 9 1006.2 1006.2 0.0
20/02:00pm 32.6 36.4 22.7 56 6.8 WSW 7 13 4 7 1006.8 1006.8 0.0
20/01:30pm 32.5 36.1 22.3 55 7.0 WNW 7 13 4 7 1007.5 1007.5 0.0
20/01:00pm 31.5 34.2 21.4 55 6.8 SW 9 17 5 9 1008.0 1008.0 0.0
20/12:30pm 31.1 34.4 23.2 63 5.4 SW 11 15 6 8 1008.7 1008.7 0.0
20/12:00pm 30.6 33.3 22.2 61 5.7 SW 11 15 6 8 1009.1 1009.1 0.0
20/11:30am 30.2 33.7 22.9 65 5.0 SW 9 15 5 8 1009.5 1009.5 0.0
20/11:00am 29.6 32.4 21.5 61 5.4 SSW 9 13 5 7 1010.3 1010.3 0.0
20/10:30am 29.0 32.4 22.0 66 4.7 W 7 13 4 7 1011.0 1011.0 53.6
20/10:00am 28.3 32.0 22.5 71 3.9 W 7 11 4 6 1011.2 1011.2 53.6
20/09:30am 27.6 31.7 22.3 73 3.6 W 4 7 2 4 1011.3 1011.3 53.6
20/09:00am 27.0 32.1 22.6 77 3.0 CALM 0 0 0 0 1011.1 1011.1 53.6
20/08:30am 26.6 31.4 22.9 80 2.5 E 2 7 1 4 1011.0 1011.0 53.6
20/08:00am 26.0 30.2 23.5 86 1.7 SSE 7 11 4 6 1010.4 1010.4 53.6

Other Formats:

Comma delimited format used in spreadsheet applications
http://www.bom.gov.au/fwo/IDD60801/IDD60801.95214.axf

JavaScript Object Notation format (JSON) in row-major order
http://www.bom.gov.au/fwo/IDD60801/IDD60801.95214.json